Time;durP1;ratioP1;P1;durP2;ratioP2;P2;SDS_P1;SDS_P2;PMS_P1;PMS_P2;Temp;Humidity;BMP_temperature;BMP_pressure;BME280_temperature;BME280_humidity;BME280_pressure;Samples;Min_cycle;Max_cycle;Signal;HPM_P1;HPM_P2
2021/12/30 00:03:13;;;;;;;10.13;8.28;;;;;;;6.59;87.77;99662.05;2975529;80;21062;-72
2021/12/30 00:07:15;;;;;;;13.13;8.83;;;;;;;6.61;87.73;99658.80;2975920;80;21031;-75
2021/12/30 00:11:17;;;;;;;17.20;9.73;;;;;;;6.61;87.68;99651.70;2976280;80;21432;-75
2021/12/30 00:15:20;;;;;;;12.60;10.48;;;;;;;6.66;87.48;99642.94;2975835;80;21526;-76
2021/12/30 00:19:22;;;;;;;14.93;12.90;;;;;;;6.69;87.40;99650.66;2976288;80;21050;-74
2021/12/30 00:23:23;;;;;;;18.52;11.65;;;;;;;6.67;87.46;99663.13;2977969;80;21002;-72
2021/12/30 00:27:25;;;;;;;20.50;13.65;;;;;;;6.62;87.54;99664.45;2978924;79;21033;-74
2021/12/30 00:31:27;;;;;;;25.05;14.73;;;;;;;6.61;87.28;99655.67;2978786;80;20974;-74
2021/12/30 00:35:29;;;;;;;23.47;16.02;;;;;;;6.35;87.17;99647.91;2976516;79;21183;-73
2021/12/30 00:39:31;;;;;;;30.32;16.27;;;;;;;6.22;87.78;99640.05;2953822;80;20998;-75
2021/12/30 00:43:33;;;;;;;12.03;8.10;;;;;;;6.05;88.65;99636.00;2953869;80;20983;-75
2021/12/30 00:47:34;;;;;;;17.90;9.18;;;;;;;6.03;89.19;99622.56;2953310;80;21056;-75
2021/12/30 00:51:37;;;;;;;17.12;9.20;;;;;;;5.99;89.14;99631.14;2953350;80;21030;-75
2021/12/30 00:55:40;;;;;;;11.95;8.60;;;;;;;6.00;88.84;99628.88;2953290;80;21022;-76
2021/12/30 00:59:42;;;;;;;13.25;9.53;;;;;;;5.91;89.21;99622.95;2953380;80;21029;-72
2021/12/30 01:03:43;;;;;;;16.50;10.35;;;;;;;5.88;89.52;99629.75;2953412;80;21005;-75
2021/12/30 01:07:45;;;;;;;12.37;10.05;;;;;;;5.86;89.86;99641.27;2953398;80;21032;-74
2021/12/30 01:11:47;;;;;;;12.25;8.28;;;;;;;5.98;89.52;99654.55;2953537;80;20998;-76
2021/12/30 01:19:57;;;;;;;13.28;8.65;;;;;;;6.04;88.75;99648.84;2953479;80;21569;-75
2021/12/30 01:24:03;;;;;;;14.95;9.95;;;;;;;5.99;88.81;99640.39;2953418;80;21061;-74
2021/12/30 01:28:04;;;;;;;11.93;8.20;;;;;;;5.97;88.89;99648.90;2953742;80;20967;-76
2021/12/30 01:32:07;;;;;;;13.88;7.58;;;;;;;5.97;88.91;99660.78;2953449;80;21518;-75
2021/12/30 01:36:08;;;;;;;13.35;9.10;;;;;;;6.04;88.56;99665.17;2957718;80;20979;-75
2021/12/30 01:40:14;;;;;;;14.07;10.65;;;;;;;6.04;88.41;99662.53;2975806;80;21009;-76
2021/12/30 01:44:15;;;;;;;11.43;8.25;;;;;;;5.97;88.76;99660.78;2927650;80;21038;-73
2021/12/30 01:48:17;;;;;;;26.80;15.88;;;;;;;6.08;88.42;99678.02;2926754;81;21022;-73
2021/12/30 01:52:19;;;;;;;23.22;14.47;;;;;;;6.07;88.37;99653.89;2926592;80;21124;-75
2021/12/30 01:56:21;;;;;;;21.93;11.88;;;;;;;6.12;87.65;99664.13;2926006;81;21058;-75
2021/12/30 02:00:25;;;;;;;13.70;9.48;;;;;;;6.17;87.54;99679.14;2926338;81;21009;-75
2021/12/30 02:04:29;;;;;;;15.05;9.55;;;;;;;6.29;87.92;99686.67;2926545;81;21002;-75
2021/12/30 02:08:31;;;;;;;25.12;15.95;;;;;;;6.42;87.38;99672.07;2926511;81;21006;-75
2021/12/30 02:12:35;;;;;;;20.35;11.55;;;;;;;6.53;86.63;99677.38;2926533;81;21081;-75
2021/12/30 02:16:37;;;;;;;19.45;12.07;;;;;;;6.51;85.91;99679.80;2926408;81;21676;-75
2021/12/30 02:20:54;;;;;;;14.68;7.37;;;;;;;6.55;85.77;99690.49;2926519;80;21029;-75
2021/12/30 02:24:58;;;;;;;;;;;;;;;6.65;86.25;99690.15;2929265;81;21002;-75
2021/12/30 02:28:59;;;;;;;9.85;6.75;;;;;;;6.73;85.33;99691.39;2926722;81;20144;-75
2021/12/30 02:33:01;;;;;;;7.85;5.90;;;;;;;6.80;85.37;99701.39;2927285;81;21050;-75
2021/12/30 02:37:03;;;;;;;10.15;6.60;;;;;;;6.81;84.96;99698.25;2928009;81;21585;-75
2021/12/30 02:41:05;;;;;;;6.15;5.53;;;;;;;6.82;84.44;99703.91;2927031;81;21007;-73
2021/12/30 02:45:07;;;;;;;9.00;6.70;;;;;;;6.91;85.07;99697.94;2926534;81;20994;-76
2021/12/30 02:49:09;;;;;;;7.60;6.72;;;;;;;6.93;84.14;99702.63;2926522;81;21046;-76
2021/12/30 02:53:13;;;;;;;8.78;5.55;;;;;;;6.86;83.99;99700.06;2926860;81;21065;-75
2021/12/30 02:57:15;;;;;;;7.72;4.72;;;;;;;6.79;84.28;99688.27;2973565;80;21447;-76
2021/12/30 03:01:26;;;;;;;8.50;6.10;;;;;;;6.63;85.30;99684.63;2977971;79;21034;-73
2021/12/30 03:05:28;;;;;;;6.72;5.35;;;;;;;6.61;85.46;99693.16;2976571;80;20987;-76
2021/12/30 03:09:29;;;;;;;13.45;6.87;;;;;;;6.67;85.69;99705.41;2976238;80;21022;-75
2021/12/30 03:13:32;;;;;;;6.17;5.60;;;;;;;6.73;85.66;99701.97;2976283;80;21392;-75
2021/12/30 03:17:38;;;;;;;8.30;6.08;;;;;;;6.82;85.52;99704.77;2976188;80;20991;-75
2021/12/30 03:21:40;;;;;;;7.25;5.75;;;;;;;6.89;85.27;99710.43;2976434;80;20963;-75
2021/12/30 03:25:41;;;;;;;10.00;6.37;;;;;;;6.93;84.94;99709.23;2976300;80;21010;-75
2021/12/30 03:29:43;;;;;;;9.73;6.67;;;;;;;6.92;84.83;99712.84;2975996;79;20999;-72
2021/12/30 03:33:45;;;;;;;10.70;6.03;;;;;;;6.95;84.71;99721.00;2976311;80;21018;-76
2021/12/30 03:37:46;;;;;;;14.53;6.47;;;;;;;7.00;84.55;99715.73;2976237;79;21519;-75
2021/12/30 03:41:48;;;;;;;7.10;5.33;;;;;;;7.09;83.66;99717.33;2976486;80;21065;-76
2021/12/30 03:45:49;;;;;;;7.40;5.70;;;;;;;7.07;82.94;99708.64;2976855;80;21030;-75
2021/12/30 03:49:52;;;;;;;7.05;5.12;;;;;;;6.90;83.09;99723.16;2976445;80;21026;-74
2021/12/30 03:53:57;;;;;;;5.97;3.90;;;;;;;6.78;83.52;99715.67;2976768;80;21007;-75
2021/12/30 03:57:58;;;;;;;6.83;5.20;;;;;;;6.70;84.38;99717.10;2976766;80;21023;-73
2021/12/30 04:02:00;;;;;;;5.78;5.08;;;;;;;6.71;84.79;99730.68;2951669;80;20986;-76
2021/12/30 04:06:02;;;;;;;6.65;5.90;;;;;;;6.77;84.83;99729.84;2927608;81;21049;-76
2021/12/30 04:10:07;;;;;;;5.35;4.40;;;;;;;6.76;84.79;99729.48;2927546;81;21018;-75
2021/12/30 04:14:09;;;;;;;4.75;3.92;;;;;;;6.80;84.96;99741.05;2971880;80;21014;-76
2021/12/30 04:18:10;;;;;;;6.15;4.90;;;;;;;6.85;84.61;99746.83;2977415;80;21050;-74
2021/12/30 04:22:14;;;;;;;5.37;4.95;;;;;;;6.91;84.71;99749.49;2979796;80;21017;-76
2021/12/30 04:26:15;;;;;;;7.30;4.95;;;;;;;6.94;84.84;99754.55;2979794;80;21034;-74
2021/12/30 04:30:17;;;;;;;5.70;5.17;;;;;;;7.02;84.78;99744.71;2979677;80;21064;-76
2021/12/30 04:34:18;;;;;;;7.85;6.08;;;;;;;7.03;84.60;99745.54;2979682;80;21034;-75
2021/12/30 04:38:20;;;;;;;6.03;5.20;;;;;;;7.12;84.82;99749.66;2966749;79;21008;-73
2021/12/30 04:42:21;;;;;;;6.30;5.33;;;;;;;7.18;84.49;99754.96;2955055;80;21062;-75
2021/12/30 04:46:23;;;;;;;10.15;7.55;;;;;;;7.19;84.65;99754.00;2955376;80;20978;-72
2021/12/30 04:50:25;;;;;;;7.58;5.22;;;;;;;7.26;85.51;99769.75;2954835;80;21032;-75
2021/12/30 04:54:27;;;;;;;11.78;7.70;;;;;;;7.29;85.96;99762.08;2955223;80;21101;-73
2021/12/30 04:58:28;;;;;;;12.35;7.37;;;;;;;7.24;87.30;99759.77;2955125;80;21612;-76
2021/12/30 05:02:42;;;;;;;14.53;10.10;;;;;;;7.28;87.92;99766.54;2924658;80;21029;-73
2021/12/30 05:06:36;;;;;;;15.10;10.95;;;;;;;7.28;88.25;99778.91;2916123;80;21042;-74
2021/12/30 05:10:38;;;;;;;12.70;9.60;;;;;;;7.23;88.71;99773.96;2921833;80;21081;-75
2021/12/30 05:14:39;;;;;;;12.93;8.10;;;;;;;7.25;88.50;99781.30;2922021;80;21069;-73
2021/12/30 05:18:41;;;;;;;9.10;7.37;;;;;;;7.26;88.08;99787.45;2949658;80;21030;-74
2021/12/30 05:22:43;;;;;;;16.67;10.20;;;;;;;7.23;87.67;99789.01;2903359;82;20986;-75
2021/12/30 05:26:45;;;;;;;14.83;10.98;;;;;;;7.31;87.45;99801.66;2945858;80;21018;-76
2021/12/30 05:30:47;;;;;;;12.70;8.13;;;;;;;7.31;87.59;99808.27;2932124;80;21041;-77
2021/12/30 05:34:48;;;;;;;13.30;9.25;;;;;;;7.29;88.19;99808.38;2903146;81;21046;-75
2021/12/30 05:38:50;;;;;;;16.20;10.95;;;;;;;7.21;88.98;99827.97;2917261;81;21025;-74
2021/12/30 05:42:52;;;;;;;15.10;9.48;;;;;;;7.24;89.65;99812.69;2928083;81;20975;-74
2021/12/30 05:46:53;;;;;;;12.70;8.30;;;;;;;7.26;90.25;99816.05;2927996;81;21037;-72
2021/12/30 05:50:59;;;;;;;11.78;8.20;;;;;;;7.29;90.90;99817.64;2927669;81;21050;-73
2021/12/30 05:54:58;;;;;;;9.93;8.93;;;;;;;7.29;91.20;99809.70;2960784;80;20986;-74
2021/12/30 05:59:00;;;;;;;9.95;8.43;;;;;;;7.31;91.40;99812.24;2979398;79;21075;-71
2021/12/30 06:03:01;;;;;;;11.75;10.28;;;;;;;7.28;92.03;99808.88;2979200;80;20987;-75
2021/12/30 06:07:03;;;;;;;21.95;9.75;;;;;;;7.22;93.26;99829.16;2979583;80;21041;-75
2021/12/30 06:11:04;;;;;;;13.22;8.70;;;;;;;7.25;93.40;99832.06;2979761;80;21029;-72
2021/12/30 06:15:08;;;;;;;17.37;11.73;;;;;;;7.17;94.13;99827.34;2979276;80;20998;-74
2021/12/30 06:19:10;;;;;;;14.60;11.10;;;;;;;7.18;94.43;99827.70;2980013;80;20990;-73
2021/12/30 06:23:11;;;;;;;12.60;9.60;;;;;;;7.18;95.01;99823.73;2979694;80;20970;-72
2021/12/30 06:27:13;;;;;;;14.50;10.78;;;;;;;7.19;94.87;99825.42;2980239;80;20959;-71
2021/12/30 06:31:16;;;;;;;12.23;10.05;;;;;;;7.17;95.36;99818.55;2981122;78;21026;-72
2021/12/30 06:35:17;;;;;;;11.45;9.45;;;;;;;7.14;95.88;99836.84;2979617;79;21018;-73
2021/12/30 06:39:19;;;;;;;13.08;10.40;;;;;;;7.11;96.32;99837.89;2979563;80;21038;-72
2021/12/30 06:43:21;;;;;;;14.15;10.53;;;;;;;7.11;96.66;99843.19;2976832;80;21003;-71
2021/12/30 06:47:24;;;;;;;14.78;10.43;;;;;;;7.10;96.98;99857.38;2976875;80;21038;-73
2021/12/30 06:51:27;;;;;;;13.78;10.25;;;;;;;7.13;96.71;99857.14;2977475;80;21034;-72
2021/12/30 06:55:29;;;;;;;13.22;10.80;;;;;;;7.15;96.62;99866.30;2977554;80;20967;-73
2021/12/30 06:59:31;;;;;;;18.25;12.98;;;;;;;7.15;96.73;99855.22;2979502;80;21077;-73
2021/12/30 07:03:32;;;;;;;14.03;9.38;;;;;;;7.15;96.99;99856.54;2978964;80;20975;-73
2021/12/30 07:07:34;;;;;;;9.68;7.55;;;;;;;7.23;96.87;99867.88;2980275;80;21461;-74
2021/12/30 07:11:36;;;;;;;16.10;10.35;;;;;;;7.25;97.06;99874.39;2980668;79;22127;-74
2021/12/30 07:15:37;;;;;;;13.95;10.58;;;;;;;7.24;97.59;99882.79;2981038;79;21042;-71
2021/12/30 07:19:39;;;;;;;21.40;12.10;;;;;;;7.31;96.85;99888.97;2981332;80;21344;-72
2021/12/30 07:23:40;;;;;;;17.20;10.70;;;;;;;7.31;96.01;99882.36;2981174;80;20947;-74
2021/12/30 07:27:45;;;;;;;25.97;13.40;;;;;;;7.33;95.85;99890.52;2981737;80;20986;-73
2021/12/30 07:31:46;;;;;;;13.13;9.13;;;;;;;7.35;96.09;99887.77;2981745;80;21566;-74
2021/12/30 07:35:48;;;;;;;9.83;7.42;;;;;;;7.34;96.20;99888.73;2981632;78;21038;-76
2021/12/30 07:39:49;;;;;;;8.50;7.30;;;;;;;7.36;96.79;99905.34;2968386;79;21007;-74
2021/12/30 07:43:52;;;;;;;8.45;6.50;;;;;;;7.46;97.83;99916.91;2964846;80;21027;-75
2021/12/30 07:47:53;;;;;;;7.08;6.00;;;;;;;7.69;98.61;99915.68;2964014;80;21053;-74
2021/12/30 07:51:55;;;;;;;8.28;6.33;;;;;;;7.86;98.70;99919.68;2965112;80;21019;-74
2021/12/30 07:55:57;;;;;;;8.13;6.40;;;;;;;8.03;98.86;99927.64;2963596;80;21574;-76
2021/12/30 07:59:58;;;;;;;5.67;5.12;;;;;;;8.15;98.97;99924.06;2965201;80;20971;-75
2021/12/30 08:04:00;;;;;;;6.80;5.53;;;;;;;8.28;98.72;99933.71;2963676;80;21014;-75
2021/12/30 08:08:01;;;;;;;8.90;5.58;;;;;;;8.39;98.73;99925.75;2965286;80;21570;-75
2021/12/30 08:12:04;;;;;;;8.70;6.72;;;;;;;8.50;98.98;99921.45;2963828;80;21050;-77
2021/12/30 08:16:06;;;;;;;5.87;5.25;;;;;;;8.57;99.08;99919.52;2973628;79;21006;-75
2021/12/30 08:20:10;;;;;;;7.83;6.58;;;;;;;8.66;98.79;99925.05;2962369;80;21026;-74
2021/12/30 08:24:12;;;;;;;9.48;6.92;;;;;;;8.74;98.85;99932.39;2932977;81;21030;-76
2021/12/30 08:28:14;;;;;;;8.93;6.55;;;;;;;8.78;98.83;99935.16;2976428;80;20927;-72
2021/12/30 08:32:16;;;;;;;8.85;6.70;;;;;;;8.92;98.33;99943.32;2977193;80;21022;-69
2021/12/30 08:36:18;;;;;;;11.93;7.03;;;;;;;9.02;97.76;99949.59;2978163;79;21007;-72
2021/12/30 08:40:20;;;;;;;10.40;6.65;;;;;;;9.14;97.43;99963.66;2930777;79;21300;-71
2021/12/30 08:44:22;;;;;;;7.60;6.25;;;;;;;9.17;97.07;99959.43;2931293;81;21050;-73
2021/12/30 08:48:23;;;;;;;7.05;5.90;;;;;;;9.26;96.87;99971.97;2927463;81;20951;-72
2021/12/30 08:52:28;;;;;;;16.95;7.22;;;;;;;9.34;96.76;99957.21;2927592;81;21054;-74
2021/12/30 08:56:31;;;;;;;11.68;7.15;;;;;;;9.45;96.47;99963.83;2927709;81;21506;-72
2021/12/30 09:00:38;;;;;;;11.30;7.70;;;;;;;9.54;96.28;99953.75;2928406;81;21005;-73
2021/12/30 09:04:42;;;;;;;17.98;9.90;;;;;;;9.61;96.22;99955.89;2861532;83;21473;-78
2021/12/30 09:08:44;;;;;;;12.65;8.48;;;;;;;9.68;95.97;99965.88;2887300;82;21025;-80
2021/12/30 09:12:47;;;;;;;14.87;7.28;;;;;;;9.77;95.51;99968.75;2911498;81;21042;-81
2021/12/30 09:16:48;;;;;;;11.57;7.92;;;;;;;9.87;95.08;99974.97;2954574;80;21384;-82
2021/12/30 09:20:51;;;;;;;11.63;7.67;;;;;;;9.97;95.02;99969.72;2935973;81;21002;-83
2021/12/30 09:24:53;;;;;;;16.40;7.15;;;;;;;10.02;95.02;99978.64;2936434;81;21010;-82
2021/12/30 09:28:55;;;;;;;17.67;7.12;;;;;;;10.09;94.86;99976.66;2935378;81;20978;-81
2021/12/30 09:33:00;;;;;;;8.68;5.30;;;;;;;10.12;94.86;99980.38;2935837;80;21022;-71
2021/12/30 09:37:02;;;;;;;13.35;6.22;;;;;;;10.21;94.52;99985.87;2940673;81;21032;-73
2021/12/30 09:41:04;;;;;;;9.13;5.42;;;;;;;10.27;94.24;99981.38;2985588;78;21017;-72
2021/12/30 09:45:07;;;;;;;6.58;5.25;;;;;;;10.31;93.71;99980.61;3024717;78;21081;-69
2021/12/30 09:49:12;;;;;;;6.87;5.55;;;;;;;10.37;93.80;99967.64;3025035;78;21014;-79
2021/12/30 09:53:15;;;;;;;12.60;5.60;;;;;;;10.37;93.97;99958.33;2961161;79;21078;-77
2021/12/30 09:57:16;;;;;;;13.10;6.60;;;;;;;10.45;93.93;99958.20;2939617;80;21542;-73
2021/12/30 10:01:18;;;;;;;8.00;6.42;;;;;;;10.51;94.13;99956.34;2964523;80;21321;-79
2021/12/30 10:05:24;;;;;;;15.43;7.25;;;;;;;10.60;94.27;99958.69;2967846;80;21019;-77
2021/12/30 10:09:50;;;;;;;10.28;5.62;;;;;;;10.73;94.03;99965.09;2988528;78;21022;-77
2021/12/30 10:13:57;;;;;;;10.50;4.53;;;;;;;10.83;93.85;99968.64;2986156;79;20994;-82
2021/12/30 10:18:00;;;;;;;8.83;4.47;;;;;;;10.89;93.52;99960.11;2986328;79;21022;-78
2021/12/30 10:22:11;;;;;;;6.37;4.20;;;;;;;11.00;93.33;99978.64;2978901;80;21010;-80
2021/12/30 10:26:13;;;;;;;9.78;5.80;;;;;;;11.05;92.67;99986.70;2978182;80;21006;-79
2021/12/30 10:30:34;;;;;;;8.83;6.00;;;;;;;11.16;93.26;99993.73;2978575;80;20995;-76
2021/12/30 10:34:37;;;;;;;10.58;6.10;;;;;;;11.28;92.55;99997.46;2943811;80;29297;-79
2021/12/30 10:38:38;;;;;;;9.48;5.58;;;;;;;11.46;92.13;99993.27;2977677;80;21049;-79
2021/12/30 10:42:40;;;;;;;16.15;6.35;;;;;;;11.52;90.20;100001.55;2981463;80;21526;-74
2021/12/30 10:46:42;;;;;;;10.18;6.60;;;;;;;11.48;90.66;100000.63;2982330;80;20991;-69
2021/12/30 10:50:45;;;;;;;20.65;7.55;;;;;;;11.51;91.10;99997.20;2982561;80;20995;-69
2021/12/30 10:54:46;;;;;;;19.50;6.30;;;;;;;11.53;91.28;99999.23;2982918;80;20975;-69
2021/12/30 10:58:48;;;;;;;14.00;7.47;;;;;;;11.62;91.30;100002.06;2982997;80;21041;-69
2021/12/30 11:02:49;;;;;;;13.48;6.50;;;;;;;11.64;90.99;99997.43;2982854;80;21034;-69
2021/12/30 11:06:55;;;;;;;12.47;7.62;;;;;;;11.68;91.05;99992.99;2982812;80;20983;-69
2021/12/30 11:10:56;;;;;;;16.80;6.30;;;;;;;11.70;90.74;99992.39;2983025;80;20979;-70
2021/12/30 11:15:05;;;;;;;11.28;7.45;;;;;;;11.75;90.80;99995.94;2982732;80;20990;-69
2021/12/30 11:19:08;;;;;;;14.35;7.15;;;;;;;11.80;90.66;99995.05;2982803;80;20971;-69
2021/12/30 11:23:11;;;;;;;18.40;8.48;;;;;;;11.88;90.16;99992.16;2982800;80;21498;-70
2021/12/30 11:27:16;;;;;;;10.70;6.60;;;;;;;11.96;90.02;99990.95;2982867;80;21010;-69
2021/12/30 11:31:18;;;;;;;13.72;7.40;;;;;;;11.98;89.64;99994.30;2982868;80;21000;-69
2021/12/30 11:35:24;;;;;;;8.53;5.78;;;;;;;11.96;89.25;99992.28;2982926;80;21006;-69
2021/12/30 11:39:26;;;;;;;8.30;5.33;;;;;;;11.97;89.34;99985.48;2982039;80;21041;-70
2021/12/30 11:43:44;;;;;;;10.05;4.70;;;;;;;12.00;89.82;99988.37;2977241;80;21022;-69
2021/12/30 11:47:46;;;;;;;14.45;6.35;;;;;;;12.07;90.16;99988.17;2979481;79;20980;-69
2021/12/30 11:51:52;;;;;;;21.12;5.53;;;;;;;12.16;90.21;99987.80;2977391;80;21015;-69
2021/12/30 11:56:22;;;;;;;10.60;6.67;;;;;;;12.21;88.93;99994.05;2979975;79;21534;-69
2021/12/30 12:00:36;;;;;;;14.58;8.53;;;;;;;12.17;88.34;99984.63;2977440;80;21062;-69
2021/12/30 12:04:38;;;;;;;14.70;7.78;;;;;;;12.10;88.26;99970.55;2980447;80;20983;-69
2021/12/30 12:08:45;;;;;;;11.60;8.10;;;;;;;12.10;88.31;99983.88;2977725;80;20995;-69
2021/12/30 12:12:47;;;;;;;12.98;7.62;;;;;;;12.10;88.53;99979.88;2980333;80;20995;-69
2021/12/30 12:16:53;;;;;;;14.10;7.75;;;;;;;12.11;89.01;99979.41;2977390;80;21487;-69
2021/12/30 12:20:59;;;;;;;11.53;6.75;;;;;;;12.08;88.75;99973.86;2980456;80;21034;-69
2021/12/30 12:25:14;;;;;;;13.28;6.92;;;;;;;12.09;88.93;99975.53;2977299;80;21038;-69
2021/12/30 12:29:33;;;;;;;10.40;5.95;;;;;;;12.07;88.94;99965.98;2980093;80;21046;-69
2021/12/30 12:33:39;;;;;;;14.93;6.58;;;;;;;12.06;88.88;99961.16;2977597;80;20948;-69
2021/12/30 12:37:47;;;;;;;17.65;6.53;;;;;;;11.98;88.61;99959.17;2980229;80;21432;-69
2021/12/30 12:41:53;;;;;;;14.58;5.47;;;;;;;12.02;88.48;99955.77;2968345;80;21051;-69
2021/12/30 12:45:59;;;;;;;10.43;6.70;;;;;;;12.00;88.42;99950.54;2968489;80;21030;-69
2021/12/30 12:50:09;;;;;;;;;;;;;;;11.97;88.02;99939.31;2969405;80;20975;-68
2021/12/30 12:54:10;;;;;;;5.22;4.55;;;;;;;11.99;88.01;99958.19;2968247;80;20135;-69
2021/12/30 12:58:12;;;;;;;10.32;5.33;;;;;;;11.94;87.53;99943.13;2966820;80;20995;-68
2021/12/30 13:02:15;;;;;;;11.83;5.50;;;;;;;11.96;87.97;99955.81;2967913;80;20951;-69
2021/12/30 13:06:25;;;;;;;10.30;5.95;;;;;;;12.01;87.82;99964.76;2966822;80;20999;-69
2021/12/30 13:10:27;;;;;;;12.95;5.08;;;;;;;12.08;86.90;99976.52;2967881;80;21038;-69
2021/12/30 13:14:30;;;;;;;9.90;4.95;;;;;;;12.07;86.53;99949.52;2966784;80;21436;-69
2021/12/30 13:18:33;;;;;;;8.48;6.42;;;;;;;12.03;86.61;99941.46;2968060;80;21023;-69
2021/12/30 13:22:34;;;;;;;9.08;4.87;;;;;;;12.01;86.93;99955.42;2966570;80;20999;-69
2021/12/30 13:26:40;;;;;;;9.40;5.75;;;;;;;11.98;87.32;99959.66;2968176;80;20987;-69
2021/12/30 13:30:42;;;;;;;8.35;5.00;;;;;;;12.05;86.79;99971.48;2966840;80;20939;-69
2021/12/30 13:35:04;;;;;;;6.80;4.42;;;;;;;12.02;86.38;99958.44;2968272;80;21010;-69
2021/12/30 13:39:14;;;;;;;8.55;5.20;;;;;;;12.00;86.12;99959.88;2968188;79;21026;-69
2021/12/30 13:43:19;;;;;;;11.22;5.20;;;;;;;11.94;86.05;99956.45;2982684;80;21010;-69
2021/12/30 13:47:32;;;;;;;9.80;4.60;;;;;;;11.86;85.75;99949.17;2982436;79;21046;-69
2021/12/30 13:51:32;;;;;;;8.88;4.92;;;;;;;11.75;85.78;99938.66;2979508;80;21010;-69
2021/12/30 13:55:37;;;;;;;6.50;4.72;;;;;;;11.84;85.90;99960.47;2983132;80;20963;-69
2021/12/30 13:59:42;;;;;;;9.73;5.40;;;;;;;11.85;86.02;99969.28;2983189;80;21034;-69
2021/12/30 14:03:46;;;;;;;14.98;5.33;;;;;;;11.80;85.38;99955.08;2982611;80;21011;-69
2021/12/30 14:07:50;;;;;;;14.35;9.78;;;;;;;11.68;85.54;99960.20;2983105;80;20991;-69
2021/12/30 14:11:54;;;;;;;9.80;5.60;;;;;;;11.74;86.30;99962.28;2982865;80;21022;-69
2021/12/30 14:15:55;;;;;;;6.60;4.20;;;;;;;11.65;86.65;99964.48;2983108;80;21012;-69
2021/12/30 14:19:57;;;;;;;7.95;4.70;;;;;;;11.59;87.44;99965.88;2982820;80;21089;-69
2021/12/30 14:24:21;;;;;;;15.08;6.90;;;;;;;11.64;87.35;99970.79;2953816;80;20995;-69
2021/12/30 14:28:29;;;;;;;9.40;5.37;;;;;;;11.60;87.46;99981.38;2982837;79;21030;-69
2021/12/30 14:32:31;;;;;;;19.37;5.67;;;;;;;11.58;87.12;99982.33;2982925;80;21006;-69
2021/12/30 14:36:34;;;;;;;6.35;3.58;;;;;;;11.50;87.16;99983.53;2982737;80;20999;-69
2021/12/30 14:40:35;;;;;;;10.95;6.30;;;;;;;11.46;87.07;99980.80;2976277;80;21035;-69
2021/12/30 14:44:43;;;;;;;9.95;5.53;;;;;;;11.38;87.33;99977.98;2967621;80;20984;-69
2021/12/30 14:48:57;;;;;;;8.50;6.35;;;;;;;11.34;87.13;99981.91;2942340;79;21097;-70
2021/12/30 14:53:03;;;;;;;7.20;6.05;;;;;;;11.40;87.40;99978.70;2967269;80;21483;-71
2021/12/30 14:57:04;;;;;;;9.40;4.97;;;;;;;11.41;85.97;99970.56;2964108;80;21008;-71
2021/12/30 15:01:10;;;;;;;7.25;4.47;;;;;;;11.34;86.88;99973.91;2967769;80;20932;-71
2021/12/30 15:05:13;;;;;;;6.42;4.17;;;;;;;11.37;87.54;99978.95;2963544;80;21038;-70
2021/12/30 15:09:15;;;;;;;4.97;3.67;;;;;;;11.42;90.24;99976.23;2935211;81;21012;-69
2021/12/30 15:13:17;;;;;;;14.55;7.22;;;;;;;11.55;91.12;99973.30;2969594;80;21069;-68
2021/12/30 15:17:20;;;;;;;12.43;7.58;;;;;;;11.65;90.79;99979.13;2974438;80;20962;-69
2021/12/30 15:21:22;;;;;;;15.63;10.20;;;;;;;11.70;91.06;99978.21;2972382;80;21014;-69
2021/12/30 15:25:23;;;;;;;13.48;9.85;;;;;;;11.72;90.92;99977.58;2970216;80;21057;-69
2021/12/30 15:29:25;;;;;;;19.23;11.33;;;;;;;11.80;90.69;99983.06;2970633;80;21514;-71
2021/12/30 15:33:26;;;;;;;16.65;10.58;;;;;;;11.86;89.71;99985.15;2972835;80;21325;-69
2021/12/30 15:37:28;;;;;;;14.98;11.30;;;;;;;11.94;89.48;99990.25;2978194;80;20995;-70
2021/12/30 15:41:30;;;;;;;19.35;11.40;;;;;;;11.99;88.45;99986.69;2962895;80;21279;-71
2021/12/30 15:45:33;;;;;;;20.30;12.33;;;;;;;11.91;89.08;99989.20;2911892;80;20980;-71
2021/12/30 15:49:36;;;;;;;20.85;13.00;;;;;;;11.87;89.29;99988.64;2900660;82;21007;-71
2021/12/30 15:53:37;;;;;;;21.45;15.05;;;;;;;11.87;90.66;99996.63;2900605;82;20995;-71
2021/12/30 15:57:40;;;;;;;27.35;15.68;;;;;;;11.78;91.96;100002.83;2900945;82;21014;-71
2021/12/30 16:01:43;;;;;;;16.50;12.20;;;;;;;11.68;91.47;99997.50;2900433;82;21578;-71
2021/12/30 16:05:44;;;;;;;16.75;11.08;;;;;;;11.58;92.62;99985.00;2900440;82;21034;-72
2021/12/30 16:09:46;;;;;;;19.27;8.33;;;;;;;11.54;93.07;99986.77;2900548;82;21015;-72
2021/12/30 16:13:47;;;;;;;12.88;6.78;;;;;;;11.53;94.52;99985.09;2917100;80;21015;-71
2021/12/30 16:17:50;;;;;;;9.70;6.15;;;;;;;11.56;95.97;99989.62;3011474;78;21043;-71
2021/12/30 16:21:52;;;;;;;8.40;5.55;;;;;;;11.60;96.53;99988.05;3011258;79;21675;-71
2021/12/30 16:25:54;;;;;;;7.72;5.80;;;;;;;11.63;96.36;99991.75;3011246;79;21004;-70
2021/12/30 16:29:56;;;;;;;10.82;5.60;;;;;;;11.63;96.07;99995.75;3011484;79;20977;-68
2021/12/30 16:34:00;;;;;;;8.40;6.42;;;;;;;11.63;96.06;100001.91;3011458;79;21002;-69
2021/12/30 16:38:01;;;;;;;7.20;5.08;;;;;;;11.63;95.82;99998.41;3011463;79;21613;-70
2021/12/30 16:42:05;;;;;;;9.43;5.30;;;;;;;11.60;95.97;100001.36;3007510;78;21034;-72
2021/12/30 16:46:07;;;;;;;13.72;5.30;;;;;;;11.57;95.95;100002.47;2947057;80;21004;-72
2021/12/30 16:50:12;;;;;;;11.95;8.05;;;;;;;11.55;95.90;100009.25;2958976;80;21022;-72
2021/12/30 16:54:14;;;;;;;8.83;6.37;;;;;;;11.57;95.91;100000.63;2971147;80;20990;-71
2021/12/30 16:58:15;;;;;;;8.00;5.95;;;;;;;11.62;95.84;100001.55;2979936;79;21026;-72
2021/12/30 17:02:17;;;;;;;11.08;7.22;;;;;;;11.61;95.81;100005.70;2936362;80;21003;-72
2021/12/30 17:06:20;;;;;;;10.93;6.22;;;;;;;11.58;96.25;100003.64;2973039;80;20978;-70
2021/12/30 17:10:23;;;;;;;10.45;7.62;;;;;;;11.56;96.27;100004.28;2982148;80;20987;-69
2021/12/30 17:14:25;;;;;;;10.78;8.20;;;;;;;11.49;97.55;100003.16;2982001;80;21022;-69
2021/12/30 17:18:26;;;;;;;9.58;8.53;;;;;;;11.54;98.42;100004.09;2979558;80;21022;-70
2021/12/30 17:22:28;;;;;;;4.53;4.00;;;;;;;11.60;98.30;100004.03;2979465;80;20956;-70
2021/12/30 17:26:30;;;;;;;4.55;4.08;;;;;;;11.62;98.28;99999.40;2980192;80;21007;-70
2021/12/30 17:30:31;;;;;;;2.50;2.12;;;;;;;11.62;98.43;100008.72;2982230;80;21010;-71
2021/12/30 17:34:33;;;;;;;5.62;3.12;;;;;;;11.68;98.26;100007.64;2979765;80;21019;-71
2021/12/30 17:38:35;;;;;;;7.05;3.47;;;;;;;11.77;97.71;100007.30;2979801;80;20995;-72
2021/12/30 17:42:37;;;;;;;4.65;3.02;;;;;;;11.78;98.04;100004.98;2965209;80;21031;-72
2021/12/30 17:46:39;;;;;;;4.03;3.25;;;;;;;11.80;97.80;100011.52;2939563;80;21027;-71
2021/12/30 17:50:43;;;;;;;5.00;3.35;;;;;;;11.82;97.51;100004.22;2990152;79;21573;-71
2021/12/30 17:54:47;;;;;;;4.83;2.87;;;;;;;11.86;97.39;100005.61;2987152;79;21065;-71
2021/12/30 17:58:48;;;;;;;5.17;2.67;;;;;;;11.90;97.42;100016.84;2987150;79;21061;-71
2021/12/30 18:02:50;;;;;;;3.35;2.33;;;;;;;11.88;97.79;100018.81;2986881;79;21018;-71
2021/12/30 18:06:52;;;;;;;3.95;3.10;;;;;;;11.92;98.09;100013.06;2987438;79;21073;-72
2021/12/30 18:10:55;;;;;;;4.92;3.22;;;;;;;11.95;98.59;100022.58;2987787;79;21010;-71
2021/12/30 18:14:57;;;;;;;3.33;2.87;;;;;;;12.01;98.51;100023.41;2986342;79;21002;-71
2021/12/30 18:18:59;;;;;;;7.50;4.50;;;;;;;12.07;98.71;100020.16;2987737;79;20970;-72
2021/12/30 18:23:01;;;;;;;5.42;4.05;;;;;;;12.10;98.76;100021.20;2987815;79;21058;-72
2021/12/30 18:27:03;;;;;;;9.43;5.00;;;;;;;12.11;98.62;100024.22;2891761;75;21097;-72
2021/12/30 18:31:06;;;;;;;7.25;3.70;;;;;;;12.12;98.55;100028.56;2879103;81;21043;-76
2021/12/30 18:35:08;;;;;;;5.20;3.25;;;;;;;12.16;98.48;100016.28;2878897;81;21055;-76
2021/12/30 18:39:11;;;;;;;4.58;2.72;;;;;;;12.16;98.30;100021.13;2878885;81;21074;-72
2021/12/30 18:43:12;;;;;;;4.05;2.45;;;;;;;12.14;99.15;100017.27;2878888;82;21031;-73
2021/12/30 18:47:14;;;;;;;2.98;2.72;;;;;;;12.16;100.00;100018.47;2879211;82;21004;-71
2021/12/30 18:51:16;;;;;;;4.62;3.08;;;;;;;12.20;100.00;100022.52;2879266;82;20992;-73
2021/12/30 18:55:21;;;;;;;5.05;3.40;;;;;;;12.18;100.00;100015.16;2878995;82;20969;-74
2021/12/30 18:59:23;;;;;;;6.05;2.72;;;;;;;12.27;100.00;100018.80;2879183;82;21067;-76
2021/12/30 19:03:25;;;;;;;4.05;2.33;;;;;;;12.26;100.00;100022.45;2878936;81;21076;-77
2021/12/30 19:07:26;;;;;;;5.15;2.67;;;;;;;12.39;100.00;100027.00;2879162;82;21000;-77